createdAt,value
2022-09-12T00:00:59.348Z,13.18
2022-09-12T00:01:59.325Z,13.20
2022-09-12T00:02:59.278Z,13.18
2022-09-12T00:03:59.327Z,13.17
2022-09-12T00:04:59.247Z,13.18
2022-09-12T00:05:59.232Z,13.17
2022-09-12T00:06:59.232Z,13.20
2022-09-12T00:07:59.230Z,13.20
2022-09-12T00:08:59.219Z,13.18
2022-09-12T00:09:59.211Z,13.18
2022-09-12T00:10:59.185Z,13.17
2022-09-12T00:11:59.200Z,13.17
2022-09-12T00:12:59.174Z,13.18
2022-09-12T00:13:59.160Z,13.20
2022-09-12T00:14:59.162Z,13.20
2022-09-12T00:15:59.155Z,13.17
2022-09-12T00:16:59.129Z,13.21
2022-09-12T00:17:59.110Z,13.20
2022-09-12T00:18:59.993Z,13.20
2022-09-12T00:19:59.110Z,13.20
2022-09-12T00:20:59.092Z,13.18
2022-09-12T00:21:59.064Z,13.17
2022-09-12T00:22:59.111Z,13.15
2022-09-12T00:23:59.073Z,13.15
2022-09-12T00:24:59.038Z,13.14
2022-09-12T00:25:59.056Z,13.12
2022-09-12T00:26:59.159Z,13.11
2022-09-12T00:27:59.064Z,13.09
2022-09-12T00:28:59.023Z,13.07
2022-09-12T00:29:59.002Z,13.06
2022-09-12T00:30:58.966Z,13.06
2022-09-12T00:31:59.045Z,13.06
2022-09-12T00:32:58.984Z,13.04
2022-09-12T00:33:58.981Z,13.03
2022-09-12T00:34:58.940Z,13.02
2022-09-12T00:35:58.937Z,13.00
2022-09-12T00:36:58.908Z,12.99
2022-09-12T00:37:58.896Z,12.97
2022-09-12T00:38:58.897Z,12.99
2022-09-12T00:39:59.007Z,12.93
2022-09-12T00:40:58.859Z,12.93
2022-09-12T00:41:58.857Z,12.89
2022-09-12T00:42:58.847Z,12.92
2022-09-12T00:43:58.844Z,12.88
2022-09-12T00:44:58.840Z,12.87
2022-09-12T00:45:58.883Z,12.84
2022-09-12T00:46:58.798Z,12.82
2022-09-12T00:47:58.801Z,12.79
2022-09-12T00:48:58.778Z,12.78
2022-09-12T00:49:58.799Z,12.78
2022-09-12T00:50:58.758Z,12.78
2022-09-12T00:51:58.749Z,12.78
2022-09-12T00:52:58.741Z,12.77
2022-09-12T00:53:58.728Z,12.75
2022-09-12T00:54:58.755Z,12.74
2022-09-12T00:55:58.714Z,12.71
2022-09-12T00:56:58.688Z,12.71
2022-09-12T00:57:58.703Z,12.71
2022-09-12T00:58:58.661Z,12.71
2022-09-12T00:59:58.680Z,12.74
2022-09-12T01:00:58.808Z,12.74
2022-09-12T01:01:58.746Z,12.71
2022-09-12T01:02:58.629Z,12.71
2022-09-12T01:03:58.619Z,12.71
2022-09-12T01:04:58.624Z,12.71
2022-09-12T01:05:58.620Z,12.71
2022-09-12T01:06:58.590Z,12.71
2022-09-12T01:07:58.572Z,12.70
2022-09-12T01:08:58.594Z,12.71
2022-09-12T01:09:58.565Z,12.71
2022-09-12T01:10:58.563Z,12.70
2022-09-12T01:11:58.534Z,12.70
2022-09-12T01:12:58.532Z,12.69
2022-09-12T01:13:58.540Z,12.67
2022-09-12T01:14:58.549Z,12.67
2022-09-12T01:15:58.498Z,12.66
2022-09-12T01:16:58.463Z,12.67
2022-09-12T01:17:58.523Z,12.66
2022-09-12T01:18:58.467Z,12.64
2022-09-12T01:19:58.461Z,12.64
2022-09-12T01:20:58.439Z,12.63
2022-09-12T01:21:58.444Z,12.63
2022-09-12T01:22:58.430Z,12.63
2022-09-12T01:23:58.416Z,12.64
2022-09-12T01:24:58.412Z,12.62
2022-09-12T01:25:58.371Z,12.62
2022-09-12T01:26:58.362Z,12.60
2022-09-12T01:27:58.390Z,12.60
2022-09-12T01:28:58.368Z,12.57
2022-09-12T01:29:58.397Z,12.57
2022-09-12T01:30:58.322Z,12.54
2022-09-12T01:31:58.365Z,12.54
2022-09-12T01:32:58.322Z,12.52
2022-09-12T01:33:58.297Z,12.49
2022-09-12T01:34:58.289Z,12.48
2022-09-12T01:35:58.291Z,12.48
2022-09-12T01:36:58.288Z,12.45
2022-09-12T01:37:58.261Z,12.44
2022-09-12T01:38:58.253Z,12.44
2022-09-12T01:39:58.278Z,12.44
2022-09-12T01:40:58.240Z,12.44
2022-09-12T01:41:58.215Z,12.41
2022-09-12T01:42:58.216Z,12.41
2022-09-12T01:43:58.203Z,12.42
2022-09-12T01:44:58.184Z,12.39
2022-09-12T01:45:58.193Z,12.39
2022-09-12T01:46:58.155Z,12.38
2022-09-12T01:47:58.185Z,12.38
2022-09-12T01:48:58.152Z,12.37
2022-09-12T01:49:58.154Z,12.38
2022-09-12T01:50:58.126Z,12.34
2022-09-12T01:51:58.090Z,12.37
2022-09-12T01:52:58.104Z,12.37
2022-09-12T01:53:58.094Z,12.34
2022-09-12T01:54:58.113Z,12.34
2022-09-12T01:55:58.072Z,12.34
2022-09-12T01:56:58.061Z,12.37
2022-09-12T01:57:58.038Z,12.37
2022-09-12T01:58:58.031Z,12.34
2022-09-12T01:59:58.030Z,12.34
2022-09-12T02:00:58.020Z,12.31
2022-09-12T02:01:58.103Z,12.31
2022-09-12T02:02:58.003Z,12.31
2022-09-12T02:03:57.985Z,12.31
2022-09-12T02:04:58.000Z,12.30
2022-09-12T02:05:57.968Z,12.31
2022-09-12T02:06:57.933Z,12.30
2022-09-12T02:07:57.963Z,12.30
2022-09-12T02:08:57.909Z,12.30
2022-09-12T02:09:57.912Z,12.30
2022-09-12T02:10:57.891Z,12.29
2022-09-12T02:11:57.918Z,12.29
2022-09-12T02:12:57.871Z,12.29
2022-09-12T02:13:57.870Z,12.30
2022-09-12T02:14:57.855Z,12.30
2022-09-12T02:15:57.856Z,12.30
2022-09-12T02:16:57.838Z,12.29
2022-09-12T02:17:57.823Z,12.29
2022-09-12T02:18:57.810Z,12.27
2022-09-12T02:19:57.810Z,12.26
2022-09-12T02:20:57.787Z,12.26
2022-09-12T02:21:57.779Z,12.26
2022-09-12T02:22:57.749Z,12.24
2022-09-12T02:23:57.749Z,12.21
2022-09-12T02:24:57.776Z,12.21
2022-09-12T02:25:57.743Z,12.21
2022-09-12T02:26:57.742Z,12.21
2022-09-12T02:27:57.708Z,12.21
2022-09-12T02:28:57.691Z,12.21
2022-09-12T02:29:57.731Z,12.20
2022-09-12T02:30:57.697Z,12.20
2022-09-12T02:31:57.656Z,12.20
2022-09-12T02:32:57.687Z,12.20
2022-09-12T02:33:57.640Z,12.19
2022-09-12T02:34:57.632Z,12.19
2022-09-12T02:35:57.642Z,12.19
2022-09-12T02:36:57.618Z,12.16
2022-09-12T02:37:57.588Z,12.19
2022-09-12T02:38:57.577Z,12.19
2022-09-12T02:39:57.637Z,12.20
2022-09-12T02:40:57.571Z,12.19
2022-09-12T02:41:57.681Z,12.16
2022-09-12T02:42:57.540Z,12.15
2022-09-12T02:43:57.528Z,12.15
2022-09-12T02:44:57.547Z,12.15
2022-09-12T02:45:57.561Z,12.15
2022-09-12T02:46:57.519Z,12.13
2022-09-12T02:47:57.488Z,12.12
2022-09-12T02:48:57.466Z,12.12
2022-09-12T02:49:57.489Z,12.13
2022-09-12T02:50:57.460Z,12.15
2022-09-12T02:51:57.477Z,12.13
2022-09-12T02:52:57.452Z,12.12
2022-09-12T02:53:57.415Z,12.13
2022-09-12T02:54:57.432Z,12.12
2022-09-12T02:55:57.413Z,12.12
2022-09-12T02:56:57.422Z,12.11
2022-09-12T02:57:57.393Z,12.09
2022-09-12T02:58:57.398Z,12.08
2022-09-12T02:59:57.381Z,12.06
2022-09-12T03:00:57.388Z,12.06
2022-09-12T03:01:57.386Z,12.05
2022-09-12T03:02:57.321Z,12.04
2022-09-12T03:03:57.326Z,12.02
2022-09-12T03:04:57.303Z,12.01
2022-09-12T03:05:57.292Z,12.01
2022-09-12T03:06:57.289Z,11.99
2022-09-12T03:07:57.269Z,11.97
2022-09-12T03:08:57.245Z,11.97
2022-09-12T03:09:57.254Z,11.97
2022-09-12T03:10:57.240Z,11.99
2022-09-12T03:11:57.255Z,11.99
2022-09-12T03:12:57.221Z,12.01
2022-09-12T03:13:57.196Z,11.99
2022-09-12T03:14:57.242Z,11.99
2022-09-12T03:15:57.199Z,11.97
2022-09-12T03:16:57.178Z,11.99
2022-09-12T03:17:57.165Z,11.99
2022-09-12T03:18:57.145Z,11.99
2022-09-12T03:19:57.207Z,11.99
2022-09-12T03:20:57.124Z,11.97
2022-09-12T03:21:57.127Z,11.94
2022-09-12T03:22:57.098Z,11.96
2022-09-12T03:23:57.131Z,11.94
2022-09-12T03:24:57.126Z,11.94
2022-09-12T03:25:57.092Z,11.94
2022-09-12T03:26:57.055Z,11.94
2022-09-12T03:27:57.063Z,11.94
2022-09-12T03:28:57.037Z,11.90
2022-09-12T03:29:57.039Z,11.90
2022-09-12T03:30:57.087Z,11.89
2022-09-12T03:31:57.000Z,11.89
2022-09-12T03:32:57.007Z,11.90
2022-09-12T03:33:56.995Z,11.89
2022-09-12T03:34:56.970Z,11.89
2022-09-12T03:35:56.989Z,11.87
2022-09-12T03:36:56.940Z,11.89
2022-09-12T03:37:56.942Z,11.87
2022-09-12T03:38:56.930Z,11.87
2022-09-12T03:39:56.962Z,11.87
2022-09-12T03:40:56.916Z,11.87
2022-09-12T03:41:56.901Z,11.87
2022-09-12T03:42:56.897Z,11.87
2022-09-12T03:43:56.868Z,11.87
2022-09-12T03:44:56.858Z,11.86
2022-09-12T03:45:56.987Z,11.86
2022-09-12T03:46:56.824Z,11.86
2022-09-12T03:47:56.841Z,11.86
2022-09-12T03:48:56.827Z,11.83
2022-09-12T03:49:56.847Z,11.85
2022-09-12T03:50:56.808Z,11.85
2022-09-12T03:51:56.772Z,11.83
2022-09-12T03:52:56.812Z,11.83
2022-09-12T03:53:56.750Z,11.82
2022-09-12T03:54:56.752Z,11.85
2022-09-12T03:55:56.747Z,11.83
2022-09-12T03:56:56.745Z,11.83
2022-09-12T03:57:56.726Z,11.82
2022-09-12T03:58:56.709Z,11.80
2022-09-12T03:59:56.688Z,11.80
2022-09-12T04:00:56.755Z,11.80
2022-09-12T04:01:56.722Z,11.78
2022-09-12T04:02:56.659Z,11.78
2022-09-12T04:03:56.664Z,11.77
2022-09-12T04:04:56.637Z,11.78
2022-09-12T04:05:56.640Z,11.77
2022-09-12T04:06:56.622Z,11.75
2022-09-12T04:07:56.639Z,11.75
2022-09-12T04:08:56.604Z,11.74
2022-09-12T04:09:56.580Z,11.74
2022-09-12T04:10:56.617Z,11.74
2022-09-12T04:11:56.558Z,11.72
2022-09-12T04:12:56.563Z,11.74
2022-09-12T04:13:56.557Z,11.72
2022-09-12T04:14:56.516Z,11.74
2022-09-12T04:15:56.541Z,11.72
2022-09-12T04:16:56.558Z,11.72
2022-09-12T04:17:56.508Z,11.71
2022-09-12T04:18:56.505Z,11.72
2022-09-12T04:19:56.478Z,11.72
2022-09-12T04:20:56.481Z,11.71
2022-09-12T04:21:56.478Z,11.70
2022-09-12T04:22:56.451Z,11.70
2022-09-12T04:23:56.451Z,11.70
2022-09-12T04:24:56.437Z,11.70
2022-09-12T04:25:56.423Z,11.70
2022-09-12T04:26:56.442Z,11.70
2022-09-12T04:27:56.387Z,11.68
2022-09-12T04:28:56.378Z,11.68
2022-09-12T04:29:56.359Z,11.68
2022-09-12T04:30:56.410Z,11.71
2022-09-12T04:31:56.343Z,11.71
2022-09-12T04:32:56.326Z,11.71
2022-09-12T04:33:56.315Z,11.72
2022-09-12T04:34:56.320Z,11.71
2022-09-12T04:35:56.388Z,11.72
2022-09-12T04:36:56.301Z,11.74
2022-09-12T04:37:56.303Z,11.74
2022-09-12T04:38:56.301Z,11.72
2022-09-12T04:39:56.309Z,11.74
2022-09-12T04:40:56.254Z,11.74
2022-09-12T04:41:56.263Z,11.74
2022-09-12T04:42:56.221Z,11.75
2022-09-12T04:43:56.241Z,11.75
2022-09-12T04:44:56.199Z,11.77
2022-09-12T04:45:56.270Z,11.77
2022-09-12T04:46:56.202Z,11.75
2022-09-12T04:47:56.166Z,11.78
2022-09-12T04:48:57.159Z,11.77
2022-09-12T04:49:56.173Z,11.77
2022-09-12T04:50:56.154Z,11.77
2022-09-12T04:51:56.137Z,11.78
2022-09-12T04:52:56.136Z,11.78
2022-09-12T04:53:56.137Z,11.78
2022-09-12T04:54:56.090Z,11.77
2022-09-12T04:57:12.628Z,11.77
2022-09-12T04:58:13.601Z,11.77
2022-09-12T04:59:13.597Z,11.77
2022-09-12T05:00:13.589Z,11.77
2022-09-12T05:01:13.664Z,11.77
2022-09-12T05:02:13.614Z,11.77
2022-09-12T05:03:13.548Z,11.75
2022-09-12T05:04:13.548Z,11.75
2022-09-12T05:05:13.525Z,11.75
2022-09-12T05:06:13.547Z,11.75
2022-09-12T05:07:13.600Z,11.74
2022-09-12T05:08:13.497Z,11.72
2022-09-12T05:09:13.488Z,11.72
2022-09-12T05:10:13.480Z,11.72
2022-09-12T05:11:13.481Z,11.71
2022-09-12T05:12:13.466Z,11.72
2022-09-12T05:13:13.437Z,11.71
2022-09-12T05:14:13.431Z,11.71
2022-09-12T05:15:13.410Z,11.72
2022-09-12T05:16:13.453Z,11.72
2022-09-12T05:17:13.384Z,11.71
2022-09-12T05:18:13.383Z,11.72
2022-09-12T05:19:13.376Z,11.74
2022-09-12T05:20:13.364Z,11.74
2022-09-12T05:21:13.359Z,11.72
2022-09-12T05:22:13.343Z,11.74
2022-09-12T05:23:13.341Z,11.77
2022-09-12T05:24:13.314Z,11.77
2022-09-12T05:25:13.311Z,11.77
2022-09-12T05:26:13.314Z,11.80
2022-09-12T05:27:13.289Z,11.80
2022-09-12T05:28:13.274Z,11.82
2022-09-12T05:29:13.318Z,11.83
2022-09-12T05:30:13.251Z,11.83
2022-09-12T05:31:13.262Z,11.83
2022-09-12T05:32:13.233Z,11.85
2022-09-12T05:33:13.230Z,11.86
2022-09-12T05:34:13.217Z,11.86
2022-09-12T05:35:13.215Z,11.86
2022-09-12T05:36:13.207Z,11.87
2022-09-12T05:37:13.180Z,11.87
2022-09-12T05:38:13.163Z,11.89
2022-09-12T05:39:13.155Z,11.87
2022-09-12T05:40:13.201Z,11.87
2022-09-12T05:41:17.528Z,11.87
2022-09-12T05:42:13.126Z,11.86
2022-09-12T05:43:13.104Z,11.89
2022-09-12T05:44:13.104Z,11.87
2022-09-12T05:45:13.085Z,11.87
2022-09-12T05:46:13.145Z,11.89
2022-09-12T05:47:13.077Z,11.89
2022-09-12T05:48:13.053Z,11.90
2022-09-12T05:49:13.048Z,11.93
2022-09-12T05:50:13.048Z,11.93
2022-09-12T05:51:13.038Z,11.93
2022-09-12T05:52:13.017Z,11.93
2022-09-12T05:53:12.992Z,11.94
2022-09-12T05:54:12.994Z,11.94
2022-09-12T05:55:12.978Z,11.96
2022-09-12T05:56:12.983Z,11.96
2022-09-12T05:57:12.953Z,11.96
2022-09-12T05:58:12.941Z,11.96
2022-09-12T05:59:12.924Z,11.96
2022-09-12T06:00:12.913Z,11.97
2022-09-12T06:01:12.948Z,11.99
2022-09-12T06:02:12.994Z,12.01
2022-09-12T06:03:12.880Z,12.02
2022-09-12T06:04:12.872Z,12.04
2022-09-12T06:05:12.858Z,12.05
2022-09-12T06:06:12.876Z,12.06
2022-09-12T06:07:12.842Z,12.06
2022-09-12T06:08:12.827Z,12.09
2022-09-12T06:09:12.823Z,12.11
2022-09-12T06:10:12.804Z,12.12
2022-09-12T06:11:12.814Z,12.13
2022-09-12T06:12:12.784Z,12.15
2022-09-12T06:13:12.762Z,12.15
2022-09-12T06:14:12.759Z,12.19
2022-09-12T06:15:12.741Z,12.20
2022-09-12T06:16:12.827Z,12.19
2022-09-12T06:17:12.722Z,12.21
2022-09-12T06:18:12.716Z,12.23
2022-09-12T06:19:12.703Z,12.26
2022-09-12T06:20:12.688Z,12.26
2022-09-12T06:21:12.707Z,12.27
2022-09-12T06:22:12.670Z,12.30
2022-09-12T06:23:12.654Z,12.30
2022-09-12T06:24:12.652Z,12.30
2022-09-12T06:25:12.637Z,12.33
2022-09-12T06:26:12.648Z,12.37
2022-09-12T06:27:12.605Z,12.38
2022-09-12T06:28:12.605Z,12.39
2022-09-12T06:29:12.585Z,12.39
2022-09-12T06:30:12.586Z,12.44
2022-09-12T06:31:12.647Z,12.45
2022-09-12T06:32:12.553Z,12.45
2022-09-12T06:33:12.539Z,12.48
2022-09-12T06:34:12.534Z,12.48
2022-09-12T06:35:12.524Z,12.49
2022-09-12T06:36:12.834Z,12.51
2022-09-12T06:37:12.500Z,12.54
2022-09-12T06:38:12.489Z,12.56
2022-09-12T06:39:12.480Z,12.57
2022-09-12T06:40:12.542Z,12.57
2022-09-12T06:41:12.487Z,12.59
2022-09-12T06:42:12.444Z,12.62
2022-09-12T06:43:12.430Z,12.66
2022-09-12T06:44:12.425Z,12.67
2022-09-12T06:45:12.404Z,12.69
2022-09-12T06:46:12.447Z,12.74
2022-09-12T06:47:12.382Z,12.75
2022-09-12T06:48:12.379Z,12.78
2022-09-12T06:49:12.364Z,12.79
2022-09-12T06:50:12.360Z,12.82
2022-09-12T06:51:12.358Z,12.84
2022-09-12T06:52:12.334Z,12.88
2022-09-12T06:53:12.324Z,12.88
2022-09-12T06:54:12.322Z,12.95
2022-09-12T06:55:14.255Z,12.96
2022-09-12T06:56:12.320Z,13.02
2022-09-12T06:57:12.272Z,13.04
2022-09-12T06:58:12.259Z,13.11
2022-09-12T06:59:12.258Z,13.14
2022-09-12T07:00:12.248Z,13.17
2022-09-12T07:01:12.322Z,13.24
2022-09-12T07:02:12.263Z,13.30
2022-09-12T07:03:12.251Z,13.37
2022-09-12T07:04:12.199Z,13.38
2022-09-12T07:05:12.192Z,13.46
2022-09-12T07:06:12.200Z,13.51
2022-09-12T07:07:12.164Z,13.55
2022-09-12T07:08:12.173Z,13.62
2022-09-12T07:09:12.154Z,13.67
2022-09-12T07:10:12.144Z,13.71
2022-09-12T07:11:12.147Z,13.77
2022-09-12T07:12:12.115Z,13.83
2022-09-12T07:13:12.113Z,13.88
2022-09-12T07:14:12.096Z,13.89
2022-09-12T07:15:12.079Z,13.94
2022-09-12T07:16:15.978Z,13.98
2022-09-12T07:17:12.172Z,13.99
2022-09-12T07:18:12.055Z,14.06
2022-09-12T07:19:12.053Z,14.12
2022-09-12T07:20:12.025Z,14.16
2022-09-12T07:21:12.037Z,14.17
2022-09-12T07:22:12.008Z,14.21
2022-09-12T07:23:11.998Z,14.29
2022-09-12T07:24:11.993Z,14.32
2022-09-12T07:25:11.972Z,14.37
2022-09-12T07:26:11.982Z,14.42
2022-09-12T07:27:11.946Z,14.44
2022-09-12T07:28:11.942Z,14.53
2022-09-12T07:29:35.876Z,14.61
2022-09-12T07:30:11.925Z,14.64
2022-09-12T07:31:11.965Z,14.65
2022-09-12T07:32:11.909Z,14.68
2022-09-12T07:33:11.891Z,14.69
2022-09-12T07:34:11.878Z,14.71
2022-09-12T07:35:11.868Z,14.74
2022-09-12T07:36:11.868Z,14.75
2022-09-12T07:37:11.837Z,14.78
2022-09-12T07:38:11.830Z,14.80
2022-09-12T07:39:11.807Z,14.84
2022-09-12T07:40:11.909Z,14.88
2022-09-12T07:41:11.813Z,14.94
2022-09-12T07:42:11.778Z,14.99
2022-09-12T07:43:11.777Z,15.03
2022-09-12T07:44:11.752Z,15.09
2022-09-12T07:45:11.747Z,15.11
2022-09-12T07:46:11.882Z,15.17
2022-09-12T07:47:11.728Z,15.23
2022-09-12T07:48:11.723Z,15.24
2022-09-12T07:49:11.700Z,15.24
2022-09-12T07:50:11.687Z,15.27
2022-09-12T07:51:11.701Z,15.27
2022-09-12T07:52:11.660Z,15.27
2022-09-12T07:53:11.658Z,15.31
2022-09-12T07:54:11.646Z,15.41
2022-09-12T07:55:11.642Z,15.48
2022-09-12T07:56:11.649Z,15.51
2022-09-12T07:57:11.613Z,15.51
2022-09-12T07:58:11.606Z,15.52
2022-09-12T07:59:11.598Z,15.57
2022-09-12T08:00:11.579Z,15.66
2022-09-12T08:01:11.633Z,15.72
2022-09-12T08:02:16.543Z,15.78
2022-09-12T08:03:11.549Z,15.84
2022-09-12T08:04:11.543Z,15.89
2022-09-12T08:05:11.531Z,15.94
2022-09-12T08:06:11.530Z,15.96
2022-09-12T08:07:11.499Z,15.97
2022-09-12T08:08:11.492Z,16.03
2022-09-12T08:09:11.498Z,16.07
2022-09-12T08:10:11.499Z,16.14
2022-09-12T08:11:11.496Z,16.18
2022-09-12T08:12:11.456Z,16.25
2022-09-12T08:13:11.429Z,16.31
2022-09-12T08:14:11.425Z,16.38
2022-09-12T08:15:11.418Z,16.42
2022-09-12T08:16:11.463Z,16.48
2022-09-12T08:17:11.394Z,16.50
2022-09-12T08:18:11.392Z,16.50
2022-09-12T08:19:11.384Z,16.58
2022-09-12T08:20:11.361Z,16.60
2022-09-12T08:21:11.365Z,16.65
2022-09-12T08:22:11.402Z,16.71
2022-09-12T08:23:11.323Z,16.78
2022-09-12T08:24:11.320Z,16.85
2022-09-12T08:25:11.304Z,16.88
2022-09-12T08:26:11.310Z,16.90
2022-09-12T08:27:11.283Z,16.98
2022-09-12T08:28:11.274Z,17.08
2022-09-12T08:29:11.271Z,17.13
2022-09-12T08:30:11.256Z,17.23
2022-09-12T08:31:11.337Z,17.32
2022-09-12T08:32:11.228Z,17.36
2022-09-12T08:33:11.207Z,17.41
2022-09-12T08:34:11.208Z,17.43
2022-09-12T08:35:11.193Z,17.48
2022-09-12T08:36:11.203Z,17.55
2022-09-12T08:37:11.164Z,17.67
2022-09-12T08:38:11.160Z,17.74
2022-09-12T08:39:11.152Z,17.84
2022-09-12T08:40:11.204Z,17.91
2022-09-12T08:41:11.128Z,17.97
2022-09-12T08:43:11.098Z,18.22
2022-09-12T08:44:11.100Z,18.33
2022-09-12T08:45:11.082Z,18.34
2022-09-12T08:46:11.175Z,18.37
2022-09-12T08:47:11.077Z,18.37
2022-09-12T08:48:11.043Z,18.43
2022-09-12T08:49:11.042Z,18.43
2022-09-12T08:50:11.040Z,18.46
2022-09-12T08:51:11.032Z,18.50
2022-09-12T08:52:11.027Z,18.55
2022-09-12T08:53:10.988Z,18.59
2022-09-12T08:54:10.986Z,18.65
2022-09-12T08:55:10.982Z,18.72
2022-09-12T08:56:10.964Z,18.76
2022-09-12T08:57:10.963Z,18.80
2022-09-12T08:58:10.959Z,18.84
2022-09-12T08:59:10.932Z,18.84
2022-09-12T09:00:10.932Z,18.84
2022-09-12T09:01:10.999Z,18.84
2022-09-12T09:02:10.971Z,18.92
2022-09-12T09:03:10.884Z,19.06
2022-09-12T09:04:10.867Z,19.11
2022-09-12T09:05:10.862Z,19.23
2022-09-12T09:06:10.846Z,19.28
2022-09-12T09:07:10.865Z,19.31
2022-09-12T09:08:10.833Z,19.32
2022-09-12T09:09:10.896Z,19.35
2022-09-12T09:10:10.908Z,19.40
2022-09-12T09:11:10.796Z,19.48
2022-09-12T09:12:10.793Z,19.50
2022-09-12T09:13:10.770Z,19.47
2022-09-12T09:14:10.813Z,19.48
2022-09-12T09:15:10.746Z,19.47
2022-09-12T09:16:10.805Z,19.50
2022-09-12T09:17:10.738Z,19.53
2022-09-12T09:18:10.713Z,19.58
2022-09-12T09:19:10.696Z,19.63
2022-09-12T09:20:10.690Z,19.68
2022-09-12T09:21:10.693Z,19.65
2022-09-12T09:22:10.683Z,19.69
2022-09-12T09:23:10.671Z,19.75
2022-09-12T09:24:10.740Z,19.73
2022-09-12T09:25:10.640Z,19.69
2022-09-12T09:26:10.634Z,19.76
2022-09-12T09:27:29.826Z,19.87
2022-09-12T09:28:10.613Z,19.98
2022-09-12T09:29:10.598Z,20.09
2022-09-12T09:30:10.584Z,20.13
2022-09-12T09:31:10.585Z,20.10
2022-09-12T09:32:10.574Z,20.16
2022-09-12T09:33:10.553Z,20.24
2022-09-12T09:34:10.532Z,20.27
2022-09-12T09:35:10.536Z,20.20
2022-09-12T09:36:10.541Z,20.27
2022-09-12T09:37:10.525Z,20.38
2022-09-12T09:38:10.506Z,20.42
2022-09-12T09:39:10.479Z,20.39
2022-09-12T09:40:10.576Z,20.42
2022-09-12T09:41:10.451Z,20.47
2022-09-12T09:42:10.481Z,20.42
2022-09-12T09:43:10.430Z,20.42
2022-09-12T09:44:10.554Z,20.49
2022-09-12T09:45:10.423Z,20.50
2022-09-12T09:46:10.516Z,20.51
2022-09-12T09:47:10.413Z,20.54
2022-09-12T09:48:10.384Z,20.50
2022-09-12T09:49:10.368Z,20.51
2022-09-12T09:50:10.365Z,20.49
2022-09-12T09:51:10.349Z,20.41
2022-09-12T09:52:10.364Z,20.39
2022-09-12T09:53:10.328Z,20.34
2022-09-12T09:54:10.334Z,20.42
2022-09-12T09:55:10.328Z,20.46
2022-09-12T09:56:10.311Z,20.43
2022-09-12T09:57:10.313Z,20.41
2022-09-12T09:58:10.276Z,20.38
2022-09-12T09:59:10.268Z,20.41
2022-09-12T10:00:10.265Z,20.41
2022-09-12T10:01:10.317Z,20.43
2022-09-12T10:02:10.298Z,20.41
2022-09-12T10:03:13.508Z,20.43
2022-09-12T10:04:10.199Z,20.41
2022-09-12T10:05:10.245Z,20.39
2022-09-12T10:06:10.187Z,20.46
2022-09-12T10:07:10.192Z,20.47
2022-09-12T10:08:10.236Z,20.43
2022-09-12T10:09:10.144Z,20.49
2022-09-12T10:10:10.133Z,20.51
2022-09-12T10:11:10.156Z,20.50
2022-09-12T10:12:10.146Z,20.47
2022-09-12T10:13:10.172Z,20.49
2022-09-12T10:14:10.091Z,20.43
2022-09-12T10:15:10.077Z,20.50
2022-09-12T10:16:10.130Z,20.56
2022-09-12T10:17:10.075Z,20.64
2022-09-12T10:18:10.054Z,20.64
2022-09-12T10:19:10.038Z,20.68
2022-09-12T10:20:21.104Z,20.74
2022-09-12T10:21:10.019Z,20.81
2022-09-12T10:22:10.024Z,20.84
2022-09-12T10:23:09.988Z,20.89
2022-09-12T10:24:09.985Z,20.95
2022-09-12T10:25:09.967Z,20.95
2022-09-12T10:26:09.959Z,20.98
2022-09-12T10:27:09.966Z,21.02
2022-09-12T10:28:09.929Z,21.05
2022-09-12T10:29:09.922Z,21.13
2022-09-12T10:30:09.916Z,21.17
2022-09-12T10:31:09.990Z,21.27
2022-09-12T10:32:09.901Z,21.35
2022-09-12T10:33:09.886Z,21.42
2022-09-12T10:34:09.870Z,21.45
2022-09-12T10:35:09.867Z,21.48
2022-09-12T10:36:09.853Z,21.54
2022-09-12T10:37:09.852Z,21.59
2022-09-12T10:38:09.830Z,21.59
2022-09-12T10:39:09.938Z,21.59
2022-09-12T10:40:10.052Z,21.61
2022-09-12T10:41:09.789Z,21.63
2022-09-12T10:42:09.794Z,21.61
2022-09-12T10:43:09.770Z,21.71
2022-09-12T10:44:09.769Z,21.81
2022-09-12T10:45:09.748Z,21.83
2022-09-12T10:46:09.766Z,21.91
2022-09-12T10:47:09.738Z,21.91
2022-09-12T10:48:09.717Z,21.97
2022-09-12T10:49:09.705Z,21.95
2022-09-12T10:50:14.751Z,21.98
2022-09-12T10:51:09.690Z,21.99
2022-09-12T10:52:09.692Z,22.09
2022-09-12T10:53:09.668Z,22.09
2022-09-12T10:54:09.647Z,22.10
2022-09-12T10:55:09.642Z,22.09
2022-09-12T10:57:02.748Z,21.99
2022-09-12T10:58:03.736Z,21.92
2022-09-12T10:59:03.714Z,21.98
2022-09-12T11:00:03.718Z,22.06
2022-09-12T11:01:03.750Z,22.06
2022-09-12T11:02:03.783Z,22.04
2022-09-12T11:03:03.677Z,22.04
2022-09-12T11:04:03.667Z,22.06
2022-09-12T11:05:03.648Z,22.09
2022-09-12T11:06:03.648Z,22.07
2022-09-12T11:07:03.645Z,22.09
2022-09-12T11:08:03.621Z,22.14
2022-09-12T11:09:03.609Z,22.13
2022-09-12T11:10:03.595Z,22.19
2022-09-12T11:11:03.584Z,22.27
2022-09-12T11:12:03.595Z,22.35
2022-09-12T11:13:03.565Z,22.41
2022-09-12T11:14:03.555Z,22.43
2022-09-12T11:15:03.544Z,22.37
2022-09-12T11:16:03.595Z,22.32
2022-09-12T11:17:03.540Z,22.28
2022-09-12T11:18:03.522Z,22.20
2022-09-12T11:19:03.502Z,22.14
2022-09-12T11:20:03.497Z,22.13
2022-09-12T11:21:03.479Z,22.13
2022-09-12T11:22:03.488Z,22.17
2022-09-12T11:23:03.469Z,22.12
2022-09-12T11:24:03.460Z,22.12
2022-09-12T11:25:03.450Z,22.19
2022-09-12T11:26:03.423Z,22.22
2022-09-12T11:27:03.434Z,22.22
2022-09-12T11:28:03.401Z,22.27
2022-09-12T11:29:03.389Z,22.37
2022-09-12T11:30:03.390Z,22.39
2022-09-12T11:31:03.425Z,22.46
2022-09-12T11:32:03.381Z,22.53
2022-09-12T11:33:03.346Z,22.53
2022-09-12T11:34:03.348Z,22.57
2022-09-12T11:35:03.337Z,22.65
2022-09-12T11:36:03.323Z,22.60
2022-09-12T11:37:06.375Z,22.56
2022-09-12T11:38:03.297Z,22.57
2022-09-12T11:39:03.289Z,22.62
2022-09-12T11:40:03.300Z,22.59
2022-09-12T11:41:03.280Z,22.59
2022-09-12T11:42:03.276Z,22.54
2022-09-12T11:43:03.250Z,22.50
2022-09-12T11:44:03.236Z,22.44
2022-09-12T11:45:03.224Z,22.46
2022-09-12T11:46:03.269Z,22.46
2022-09-12T11:47:03.217Z,22.52
2022-09-12T11:48:03.189Z,22.44
2022-09-12T11:49:03.181Z,22.39
2022-09-12T11:50:03.168Z,22.44
2022-09-12T11:51:03.172Z,22.38
2022-09-12T11:52:03.171Z,22.44
2022-09-12T11:53:03.182Z,22.53
2022-09-12T11:54:03.139Z,22.60
2022-09-12T11:55:03.114Z,22.57
2022-09-12T11:56:03.102Z,22.52
2022-09-12T11:57:03.106Z,22.56
2022-09-12T11:58:03.088Z,22.64
2022-09-12T11:59:03.067Z,22.67
2022-09-12T12:00:03.070Z,22.59
2022-09-12T12:01:03.045Z,22.64
2022-09-12T12:02:03.123Z,22.65
2022-09-12T12:03:03.040Z,22.60
2022-09-12T12:04:03.015Z,22.67
2022-09-12T12:05:02.999Z,22.78
2022-09-12T12:06:02.999Z,22.72
2022-09-12T12:07:02.992Z,22.69
2022-09-12T12:08:02.969Z,22.68
2022-09-12T12:09:02.967Z,22.68
2022-09-12T12:10:02.956Z,22.71
2022-09-12T12:11:02.946Z,22.69
2022-09-12T12:12:02.958Z,22.68
2022-09-12T12:13:02.920Z,22.68
2022-09-12T12:14:02.950Z,22.69
2022-09-12T12:15:02.905Z,22.67
2022-09-12T12:16:02.918Z,22.62
2022-09-12T12:17:02.898Z,22.65
2022-09-12T12:18:02.870Z,22.59
2022-09-12T12:19:04.132Z,22.57
2022-09-12T12:20:06.723Z,22.57
2022-09-12T12:21:02.849Z,22.53
2022-09-12T12:22:02.840Z,22.52
2022-09-12T12:23:02.817Z,22.52
2022-09-12T12:24:02.804Z,22.50
2022-09-12T12:25:02.792Z,22.53
2022-09-12T12:26:02.784Z,22.57
2022-09-12T12:27:02.780Z,22.53
2022-09-12T12:28:02.758Z,22.53
2022-09-12T12:29:02.752Z,22.54
2022-09-12T12:30:02.731Z,22.57
2022-09-12T12:31:02.799Z,22.60
2022-09-12T12:32:02.734Z,22.65
2022-09-12T12:33:02.705Z,22.69
2022-09-12T12:34:02.695Z,22.75
2022-09-12T12:35:02.678Z,22.77
2022-09-12T12:36:02.676Z,22.72
2022-09-12T12:37:07.207Z,22.77
2022-09-12T12:38:02.643Z,22.86
2022-09-12T12:39:02.639Z,22.87
2022-09-12T12:40:02.670Z,22.87
2022-09-12T12:41:02.621Z,22.93
2022-09-12T12:42:02.626Z,23.01
2022-09-12T12:43:02.600Z,22.96
2022-09-12T12:44:02.597Z,22.96
2022-09-12T12:45:02.577Z,22.94
2022-09-12T12:46:02.613Z,22.97
2022-09-12T12:47:02.576Z,23.04
2022-09-12T12:48:06.297Z,23.11
2022-09-12T12:49:02.538Z,23.15
2022-09-12T12:50:02.523Z,23.12
2022-09-12T12:51:02.508Z,23.14
2022-09-12T12:52:02.525Z,23.20
2022-09-12T12:53:02.482Z,23.24
2022-09-12T12:54:02.477Z,23.29
2022-09-12T12:55:02.464Z,23.39
2022-09-12T12:56:02.468Z,23.43